Time;durP1;ratioP1;P1;durP2;ratioP2;P2;SDS_P1;SDS_P2;PMS_P1;PMS_P2;Temp;Humidity;BMP_temperature;BMP_pressure;BME280_temperature;BME280_humidity;BME280_pressure;Samples;Min_cycle;Max_cycle;Signal;HPM_P1;HPM_P2
2023/01/09 00:01:12;;;;;;;6.72;2.08;;;6.80;94.50;;;;;;5051146;28;20059;-76
2023/01/09 00:03:38;;;;;;;;;;;6.80;94.60;;;;;;5052443;28;20041;-74
2023/01/09 00:06:03;;;;;;;8.02;2.60;;;6.90;94.60;;;;;;5052296;28;19924;-71
2023/01/09 00:08:29;;;;;;;5.78;2.25;;;6.80;94.40;;;;;;5051958;28;20123;-72
2023/01/09 00:10:54;;;;;;;5.20;2.50;;;6.80;94.30;;;;;;5051897;28;20045;-73
2023/01/09 00:13:20;;;;;;;7.40;3.85;;;6.80;94.30;;;;;;5051853;28;20155;-72
2023/01/09 00:15:47;;;;;;;5.70;2.65;;;6.80;94.60;;;;;;5051185;28;20120;-73
2023/01/09 00:18:13;;;;;;;7.15;2.80;;;6.80;95.10;;;;;;5051788;28;20045;-72
2023/01/09 00:20:39;;;;;;;5.72;2.30;;;6.80;95.10;;;;;;5051817;28;20084;-73
2023/01/09 00:23:05;;;;;;;5.72;2.22;;;6.80;94.70;;;;;;5052044;28;20036;-76
2023/01/09 00:25:30;;;;;;;4.93;2.08;;;6.90;94.90;;;;;;5051531;28;20041;-72
2023/01/09 00:27:56;;;;;;;3.85;2.13;;;6.90;94.90;;;;;;5035123;28;20398;-74
2023/01/09 00:30:22;;;;;;;6.07;2.50;;;6.80;94.90;;;;;;5051689;28;20049;-75
2023/01/09 00:32:47;;;;;;;4.47;1.88;;;6.80;95.00;;;;;;5034218;28;20079;-74
2023/01/09 00:35:16;;;;;;;5.43;2.30;;;6.80;95.10;;;;;;5051840;28;20361;-74
2023/01/09 00:37:42;;;;;;;3.65;2.22;;;6.90;95.10;;;;;;5051519;28;20041;-75
2023/01/09 00:40:08;;;;;;;3.78;2.08;;;6.90;95.00;;;;;;5051625;28;20037;-75
2023/01/09 00:42:35;;;;;;;4.00;2.03;;;6.90;94.50;;;;;;5051801;28;20048;-74
2023/01/09 00:45:06;;;;;;;6.93;2.47;;;7.00;94.80;;;;;;5068154;28;20052;-74
2023/01/09 00:47:37;;;;;;;4.30;2.42;;;7.00;94.80;;;;;;5051607;28;20048;-74
2023/01/09 00:50:07;;;;;;;4.93;2.25;;;7.00;94.90;;;;;;5034066;28;20041;-76
2023/01/09 00:52:36;;;;;;;4.35;2.20;;;7.10;94.90;;;;;;5051119;28;20080;-74
2023/01/09 00:55:03;;;;;;;4.78;1.95;;;7.10;94.60;;;;;;5035012;28;20084;-75
2023/01/09 00:57:29;;;;;;;4.90;2.40;;;7.10;94.70;;;;;;5051689;28;20041;-74
2023/01/09 00:59:56;;;;;;;5.90;2.08;;;7.10;94.70;;;;;;5068358;28;20097;-75
2023/01/09 01:02:21;;;;;;;5.95;2.20;;;7.10;94.70;;;;;;5068108;28;20045;-74
2023/01/09 01:07:37;;;;;;;7.18;3.33;;;7.20;94.50;;;;;;5050174;28;20080;-74
2023/01/09 01:10:05;;;;;;;7.80;2.40;;;7.10;94.70;;;;;;5051359;28;20040;-73
2023/01/09 01:12:30;;;;;;;9.20;2.80;;;7.10;94.60;;;;;;5051259;28;20045;-73
2023/01/09 01:14:56;;;;;;;7.90;2.70;;;7.20;94.40;;;;;;5051199;28;20553;-75
2023/01/09 01:17:21;;;;;;;7.43;2.78;;;7.10;94.70;;;;;;5034743;28;20052;-72
2023/01/09 01:19:47;;;;;;;5.68;2.38;;;7.10;94.70;;;;;;5051199;28;20083;-75
2023/01/09 01:22:13;;;;;;;6.82;2.30;;;7.10;94.60;;;;;;5050229;28;20296;-74
2023/01/09 01:24:39;;;;;;;5.32;2.45;;;7.10;94.60;;;;;;5051343;28;20476;-72
2023/01/09 01:27:04;;;;;;;5.88;2.85;;;7.10;94.40;;;;;;5051136;28;20049;-74
2023/01/09 01:29:30;;;;;;;9.43;2.58;;;7.10;94.50;;;;;;5051394;28;20045;-74
2023/01/09 01:31:56;;;;;;;5.22;2.38;;;7.20;94.30;;;;;;5034495;28;20052;-72
2023/01/09 01:34:21;;;;;;;8.43;2.60;;;7.10;94.30;;;;;;5034482;28;20405;-76
2023/01/09 01:36:47;;;;;;;9.70;3.05;;;7.10;94.60;;;;;;5051193;28;20037;-73
2023/01/09 01:39:13;;;;;;;15.48;3.33;;;7.10;94.40;;;;;;5050214;28;20424;-73
2023/01/09 01:41:39;;;;;;;6.97;2.75;;;7.10;94.40;;;;;;5051043;28;20452;-75
2023/01/09 01:44:25;;;;;;;9.57;2.92;;;7.00;94.30;;;;;;5050977;28;20040;-78
2023/01/09 01:46:52;;;;;;;8.77;2.40;;;7.00;94.10;;;;;;5034256;28;20090;-77
2023/01/09 01:49:19;;;;;;;5.65;2.00;;;7.00;94.10;;;;;;5052439;28;20083;-75
2023/01/09 01:51:51;;;;;;;6.38;2.33;;;6.90;94.00;;;;;;5054654;28;20040;-74
2023/01/09 01:54:22;;;;;;;9.77;2.50;;;6.80;93.90;;;;;;5054388;28;20092;-75
2023/01/09 01:56:55;;;;;;;4.80;2.05;;;6.80;93.80;;;;;;5053247;28;20072;-76
2023/01/09 01:59:30;;;;;;;7.47;2.40;;;6.70;93.70;;;;;;5054440;28;20076;-74
2023/01/09 02:01:59;;;;;;;8.23;2.20;;;6.60;93.60;;;;;;5054349;28;20051;-74
2023/01/09 02:04:25;;;;;;;8.45;2.55;;;6.60;93.70;;;;;;5054327;28;20041;-75
2023/01/09 02:06:54;;;;;;;8.23;2.67;;;6.50;93.50;;;;;;5054181;28;20041;-74
2023/01/09 02:09:21;;;;;;;7.72;2.08;;;6.50;93.60;;;;;;5054188;28;20044;-76
2023/01/09 02:11:52;;;;;;;8.77;1.73;;;6.40;93.40;;;;;;5054072;28;20500;-72
2023/01/09 02:14:21;;;;;;;7.18;1.80;;;6.40;93.70;;;;;;5052919;28;20154;-74
2023/01/09 02:17:16;;;;;;;12.88;2.00;;;6.30;93.70;;;;;;5054034;28;20116;-72
2023/01/09 02:19:48;;;;;;;;;;;6.20;93.80;;;;;;5041468;28;20090;-74
2023/01/09 02:22:22;;;;;;;7.05;2.00;;;6.10;94.10;;;;;;5054023;28;19916;-74
2023/01/09 02:25:16;;;;;;;8.15;2.55;;;6.10;94.20;;;;;;5037268;28;20044;-76
2023/01/09 02:27:53;;;;;;;6.57;2.08;;;6.10;94.20;;;;;;5054398;28;20087;-74
2023/01/09 02:30:37;;;;;;;10.73;1.98;;;6.10;94.20;;;;;;5054094;28;20420;-73
2023/01/09 02:33:31;;;;;;;6.05;2.13;;;6.00;94.30;;;;;;5052527;28;20056;-74
2023/01/09 02:36:26;;;;;;;8.15;2.65;;;6.00;94.80;;;;;;5053698;28;20079;-75
2023/01/09 02:39:14;;;;;;;8.82;2.72;;;5.90;94.80;;;;;;5053990;28;20405;-76
2023/01/09 02:41:52;;;;;;;7.65;2.65;;;5.90;94.90;;;;;;5053658;28;20048;-73
2023/01/09 02:44:29;;;;;;;8.30;2.50;;;5.90;94.70;;;;;;5070290;28;20053;-76
2023/01/09 02:47:19;;;;;;;11.45;2.53;;;5.80;94.80;;;;;;5053803;28;20424;-74
2023/01/09 02:49:49;;;;;;;7.63;2.50;;;5.70;94.90;;;;;;5025051;28;20048;-72
2023/01/09 02:52:37;;;;;;;6.28;2.85;;;5.60;95.00;;;;;;5052251;28;20127;-71
2023/01/09 02:55:28;;;;;;;8.13;2.22;;;5.60;95.10;;;;;;5053628;28;20508;-71
2023/01/09 02:58:10;;;;;;;8.85;2.80;;;5.60;95.40;;;;;;5053280;28;20516;-72
2023/01/09 03:01:00;;;;;;;9.30;2.78;;;5.60;95.90;;;;;;5052486;28;20084;-75
2023/01/09 03:03:44;;;;;;;8.57;2.83;;;5.60;95.80;;;;;;5053504;28;20417;-75
2023/01/09 03:06:23;;;;;;;7.03;2.58;;;5.50;95.80;;;;;;5053422;28;20464;-76
2023/01/09 03:08:55;;;;;;;11.10;2.75;;;5.60;95.80;;;;;;5035389;28;20485;-74
2023/01/09 03:11:21;;;;;;;11.60;2.97;;;5.50;96.30;;;;;;5053052;28;20040;-74
2023/01/09 03:13:52;;;;;;;11.77;2.88;;;5.60;96.20;;;;;;5053309;28;20102;-76
2023/01/09 03:16:27;;;;;;;7.22;2.70;;;5.60;96.30;;;;;;5052903;28;20037;-74
2023/01/09 03:18:55;;;;;;;6.32;2.35;;;5.70;96.20;;;;;;5053169;28;20392;-74
2023/01/09 03:21:22;;;;;;;6.85;2.03;;;5.70;96.30;;;;;;5036338;28;20040;-74
2023/01/09 03:23:54;;;;;;;6.28;2.85;;;5.70;95.70;;;;;;5052885;28;20076;-74
2023/01/09 03:26:20;;;;;;;13.10;3.60;;;5.80;96.50;;;;;;5035307;28;20444;-74
2023/01/09 03:28:46;;;;;;;6.72;2.63;;;5.80;96.10;;;;;;5053118;28;20049;-74
2023/01/09 03:31:12;;;;;;;10.27;2.88;;;5.80;96.20;;;;;;5052616;28;20073;-76
2023/01/09 03:33:38;;;;;;;9.27;3.53;;;5.80;96.50;;;;;;5052665;28;20449;-76
2023/01/09 03:36:04;;;;;;;8.88;3.38;;;5.80;96.70;;;;;;5052807;28;20063;-76
2023/01/09 03:38:30;;;;;;;11.88;2.83;;;5.80;96.50;;;;;;5052518;28;20485;-75
2023/01/09 03:40:55;;;;;;;9.05;2.83;;;5.80;96.30;;;;;;5052744;28;20045;-73
2023/01/09 03:43:21;;;;;;;10.57;2.80;;;5.80;96.10;;;;;;5035330;28;20520;-76
2023/01/09 03:45:47;;;;;;;8.02;3.00;;;5.90;96.50;;;;;;5036055;28;20124;-75
2023/01/09 03:48:12;;;;;;;12.13;3.47;;;5.90;96.70;;;;;;5052604;28;20501;-74
2023/01/09 03:50:41;;;;;;;8.15;3.50;;;5.90;96.60;;;;;;5052278;28;20527;-74
2023/01/09 03:53:07;;;;;;;11.88;4.28;;;6.00;96.30;;;;;;5052285;28;20056;-75
2023/01/09 03:55:32;;;;;;;10.27;4.00;;;6.00;96.10;;;;;;5052386;28;20482;-73
2023/01/09 03:57:58;;;;;;;6.18;4.07;;;6.00;96.60;;;;;;5051161;28;20044;-73
2023/01/09 04:00:24;;;;;;;13.65;4.93;;;6.10;96.60;;;;;;5052149;28;20040;-76
2023/01/09 04:02:50;;;;;;;12.45;4.60;;;6.10;96.50;;;;;;5035507;28;20067;-73
2023/01/09 04:05:15;;;;;;;10.70;5.82;;;6.10;96.50;;;;;;5051962;28;20047;-76
2023/01/09 04:07:41;;;;;;;10.02;4.35;;;6.10;96.60;;;;;;5035438;28;20063;-73
2023/01/09 04:10:07;;;;;;;8.73;4.55;;;6.10;96.20;;;;;;5052032;28;20044;-76
2023/01/09 04:12:33;;;;;;;13.73;7.05;;;6.10;96.30;;;;;;5051585;28;20073;-74
2023/01/09 04:14:59;;;;;;;11.73;5.55;;;6.00;96.40;;;;;;5034610;28;20080;-76
2023/01/09 04:17:24;;;;;;;10.00;5.03;;;6.00;96.40;;;;;;5018842;28;20040;-75
2023/01/09 04:19:50;;;;;;;6.35;4.55;;;6.00;96.40;;;;;;5051830;28;20037;-75
2023/01/09 04:22:16;;;;;;;10.57;5.20;;;6.00;96.40;;;;;;5051866;28;20049;-77
2023/01/09 04:24:41;;;;;;;8.98;5.18;;;5.90;96.40;;;;;;5051694;28;20041;-76
2023/01/09 04:27:07;;;;;;;12.48;5.85;;;5.90;96.40;;;;;;5035443;28;20057;-74
2023/01/09 04:29:33;;;;;;;13.38;5.40;;;6.00;96.50;;;;;;5035149;28;20102;-73
2023/01/09 04:31:58;;;;;;;12.05;5.38;;;5.90;96.60;;;;;;5050521;28;20052;-75
2023/01/09 04:34:24;;;;;;;9.88;5.00;;;6.00;96.30;;;;;;5051942;28;20084;-76
2023/01/09 04:36:54;;;;;;;10.32;4.95;;;6.00;96.70;;;;;;5035099;28;20090;-74
2023/01/09 04:39:21;;;;;;;12.25;5.20;;;6.10;96.40;;;;;;5051612;28;20083;-76
2023/01/09 04:41:49;;;;;;;12.75;5.07;;;6.10;96.20;;;;;;5051565;28;20048;-74
2023/01/09 04:44:15;;;;;;;8.65;5.15;;;6.00;96.40;;;;;;5051543;28;20045;-76
2023/01/09 04:46:41;;;;;;;10.90;5.15;;;6.00;96.50;;;;;;5051389;28;20110;-74
2023/01/09 04:49:07;;;;;;;10.63;5.28;;;5.90;96.50;;;;;;5050496;28;20069;-74
2023/01/09 04:51:32;;;;;;;11.38;5.40;;;5.90;96.40;;;;;;5051442;28;20107;-73
2023/01/09 04:53:58;;;;;;;10.00;5.07;;;5.90;96.30;;;;;;5034747;28;20052;-73
2023/01/09 04:56:24;;;;;;;10.05;5.13;;;5.80;96.30;;;;;;5051378;28;20041;-73
2023/01/09 04:58:49;;;;;;;11.88;5.75;;;5.80;96.20;;;;;;5051457;28;20037;-74
2023/01/09 05:01:15;;;;;;;11.52;5.65;;;5.80;96.10;;;;;;5018379;28;20037;-76
2023/01/09 05:03:41;;;;;;;10.85;5.25;;;5.70;96.20;;;;;;5050332;28;20040;-74
2023/01/09 05:06:07;;;;;;;10.48;5.40;;;5.70;96.40;;;;;;5051531;28;20041;-76
2023/01/09 05:08:32;;;;;;;13.02;6.03;;;5.70;96.40;;;;;;5068357;28;20043;-75
2023/01/09 05:10:58;;;;;;;14.15;5.68;;;5.70;96.60;;;;;;5051267;28;20398;-74
2023/01/09 05:13:24;;;;;;;10.60;5.25;;;5.70;96.70;;;;;;5034779;28;20044;-76
2023/01/09 05:15:49;;;;;;;13.27;6.95;;;5.70;96.80;;;;;;5051159;28;20095;-77
2023/01/09 05:18:15;;;;;;;13.10;6.00;;;5.70;97.00;;;;;;5051226;28;20062;-74
2023/01/09 05:20:41;;;;;;;12.77;6.00;;;5.70;97.00;;;;;;5051450;28;20037;-75
2023/01/09 05:23:06;;;;;;;11.48;5.82;;;5.80;96.90;;;;;;5050147;28;20037;-75
2023/01/09 05:25:32;;;;;;;12.23;6.35;;;5.70;96.90;;;;;;5054735;28;20037;-75
2023/01/09 05:28:00;;;;;;;9.23;5.82;;;5.80;96.90;;;;;;5055319;28;20175;-76
2023/01/09 05:30:26;;;;;;;12.63;6.50;;;5.80;97.10;;;;;;5038571;28;20037;-75
2023/01/09 05:32:52;;;;;;;10.23;6.82;;;5.80;97.00;;;;;;5054870;28;20041;-74
2023/01/09 05:35:18;;;;;;;14.63;6.60;;;5.80;97.00;;;;;;5038260;28;20037;-75
2023/01/09 05:37:45;;;;;;;11.38;7.15;;;5.80;96.80;;;;;;5038224;28;20036;-73
2023/01/09 05:40:11;;;;;;;14.73;6.80;;;5.90;96.80;;;;;;5053781;28;20084;-77
2023/01/09 05:42:37;;;;;;;14.40;7.90;;;5.90;96.70;;;;;;5054789;28;20516;-75
2023/01/09 05:45:04;;;;;;;12.20;7.18;;;5.90;96.70;;;;;;5021566;28;20045;-75
2023/01/09 05:47:29;;;;;;;11.40;8.10;;;5.90;96.70;;;;;;5055162;28;20072;-75
2023/01/09 05:49:55;;;;;;;12.85;8.45;;;6.00;96.50;;;;;;5038599;28;20087;-73
2023/01/09 05:52:22;;;;;;;17.67;9.50;;;5.90;96.60;;;;;;5054802;28;20124;-72
2023/01/09 05:54:48;;;;;;;14.70;9.75;;;5.90;96.60;;;;;;5055099;28;20053;-73
2023/01/09 05:57:13;;;;;;;15.02;10.05;;;6.00;96.80;;;;;;5054287;28;20043;-73
2023/01/09 05:59:39;;;;;;;17.52;10.05;;;6.00;96.60;;;;;;5055007;28;20485;-73
2023/01/09 06:02:05;;;;;;;16.27;9.98;;;6.10;96.60;;;;;;5054883;28;20124;-75
2023/01/09 06:04:30;;;;;;;17.30;10.05;;;6.10;96.50;;;;;;5054832;28;20044;-76
2023/01/09 06:06:56;;;;;;;20.42;11.25;;;6.10;96.70;;;;;;5054667;28;20047;-72
2023/01/09 06:09:22;;;;;;;17.85;12.25;;;6.10;96.50;;;;;;5054722;28;20079;-72
2023/01/09 06:11:47;;;;;;;21.35;12.13;;;6.10;96.50;;;;;;5054799;28;20032;-74
2023/01/09 06:14:13;;;;;;;17.38;10.90;;;6.10;96.40;;;;;;5053512;28;20572;-78
2023/01/09 06:16:39;;;;;;;14.35;9.68;;;6.10;96.40;;;;;;5054689;28;20041;-73
2023/01/09 06:19:04;;;;;;;14.10;9.55;;;6.10;96.30;;;;;;5037771;28;20070;-74
2023/01/09 06:21:31;;;;;;;15.70;9.27;;;6.10;96.20;;;;;;5054516;28;20045;-74
2023/01/09 06:23:57;;;;;;;18.42;9.85;;;6.10;96.10;;;;;;5038091;28;20041;-73
2023/01/09 06:26:24;;;;;;;16.98;10.77;;;6.10;96.10;;;;;;5054360;28;20072;-75
2023/01/09 06:28:50;;;;;;;19.25;11.70;;;6.10;96.00;;;;;;5071022;28;20052;-76
2023/01/09 06:31:15;;;;;;;16.55;10.57;;;6.10;96.00;;;;;;5049263;28;20033;-73
2023/01/09 06:33:41;;;;;;;20.10;11.98;;;6.10;95.90;;;;;;5034327;28;20045;-73
2023/01/09 06:36:07;;;;;;;18.40;12.13;;;6.10;95.80;;;;;;5034265;28;20073;-75
2023/01/09 06:38:33;;;;;;;19.50;11.57;;;6.10;95.80;;;;;;5034561;28;20387;-75
2023/01/09 06:40:59;;;;;;;19.77;11.40;;;6.00;95.60;;;;;;5034318;28;20140;-74
2023/01/09 06:43:25;;;;;;;14.60;10.98;;;6.00;95.80;;;;;;5034295;28;20045;-74
2023/01/09 06:45:51;;;;;;;15.70;11.60;;;6.00;95.70;;;;;;5034251;28;20116;-73
2023/01/09 06:48:16;;;;;;;18.83;12.23;;;5.90;95.70;;;;;;5037285;28;20048;-74
2023/01/09 06:50:42;;;;;;;20.75;12.13;;;5.90;95.80;;;;;;5037514;28;20370;-74
2023/01/09 06:53:09;;;;;;;21.23;13.55;;;5.90;95.70;;;;;;5053900;28;20052;-74
2023/01/09 06:55:35;;;;;;;20.00;13.30;;;5.80;95.70;;;;;;5037570;28;20045;-75
2023/01/09 06:58:01;;;;;;;19.70;13.35;;;5.80;95.70;;;;;;5054131;28;20072;-75
2023/01/09 07:00:27;;;;;;;21.33;13.07;;;5.80;95.70;;;;;;5053853;28;20390;-73
2023/01/09 07:02:52;;;;;;;18.38;13.15;;;5.80;95.70;;;;;;5053673;28;20048;-74
2023/01/09 07:05:18;;;;;;;22.75;14.70;;;5.70;95.70;;;;;;5052532;28;20056;-72
2023/01/09 07:07:44;;;;;;;19.30;12.57;;;5.70;95.70;;;;;;5053532;28;20044;-75
2023/01/09 07:10:10;;;;;;;15.05;12.32;;;5.60;95.80;;;;;;5053454;28;20084;-75
2023/01/09 07:12:35;;;;;;;21.77;14.23;;;5.60;95.90;;;;;;5052832;28;20044;-75
2023/01/09 07:15:01;;;;;;;18.05;12.10;;;5.60;95.90;;;;;;5053469;28;20044;-74
2023/01/09 07:17:27;;;;;;;18.58;12.10;;;5.60;95.90;;;;;;5053368;28;20064;-74
2023/01/09 07:19:52;;;;;;;19.90;12.75;;;5.60;95.90;;;;;;5052260;28;20396;-75
2023/01/09 07:22:18;;;;;;;17.33;13.55;;;5.60;95.90;;;;;;5053532;28;20132;-73
2023/01/09 07:24:44;;;;;;;18.00;12.57;;;5.60;95.90;;;;;;5053251;28;20048;-77
2023/01/09 07:27:10;;;;;;;18.02;12.07;;;5.60;95.80;;;;;;5053502;28;20045;-73
2023/01/09 07:29:36;;;;;;;17.67;12.20;;;5.50;95.80;;;;;;5053496;28;20047;-73
2023/01/09 07:32:02;;;;;;;22.52;13.63;;;5.50;95.90;;;;;;5053273;28;20389;-74
2023/01/09 07:34:28;;;;;;;18.42;13.10;;;5.50;95.90;;;;;;5036717;28;20425;-75
2023/01/09 07:36:53;;;;;;;18.02;13.98;;;5.50;95.80;;;;;;5053127;28;20076;-75
2023/01/09 07:39:19;;;;;;;21.05;12.93;;;5.50;95.90;;;;;;5036088;28;20439;-75
2023/01/09 07:41:45;;;;;;;19.17;13.25;;;5.50;95.80;;;;;;5036299;28;20459;-76
2023/01/09 07:44:12;;;;;;;16.10;12.60;;;5.50;95.80;;;;;;5052824;28;20079;-75
2023/01/09 07:46:37;;;;;;;15.70;11.93;;;5.40;95.80;;;;;;5050415;28;20044;-73
2023/01/09 07:49:03;;;;;;;18.65;12.73;;;5.40;95.80;;;;;;5045432;28;20033;-74
2023/01/09 07:51:29;;;;;;;19.60;12.48;;;5.40;95.80;;;;;;5043871;28;20036;-72
2023/01/09 07:53:54;;;;;;;22.13;12.52;;;5.40;95.90;;;;;;5050678;28;20060;-74
2023/01/09 07:56:20;;;;;;;16.92;11.90;;;5.40;95.90;;;;;;5052231;28;20086;-76
2023/01/09 07:58:46;;;;;;;20.55;12.20;;;5.40;95.90;;;;;;5051796;28;20041;-76
2023/01/09 08:01:12;;;;;;;21.88;12.07;;;5.40;95.90;;;;;;5040427;28;20191;-73
2023/01/09 08:03:37;;;;;;;16.02;11.77;;;5.40;95.90;;;;;;5040362;28;20045;-73
2023/01/09 08:06:03;;;;;;;19.38;11.15;;;5.50;95.90;;;;;;5032350;28;20048;-74
2023/01/09 08:08:29;;;;;;;14.82;9.85;;;5.40;96.00;;;;;;5032655;28;20041;-75
2023/01/09 08:10:55;;;;;;;15.32;9.88;;;5.40;96.10;;;;;;5034555;28;20053;-74
2023/01/09 08:13:21;;;;;;;12.32;9.45;;;5.40;96.20;;;;;;5051150;28;20136;-75
2023/01/09 08:15:46;;;;;;;15.18;9.32;;;5.40;96.10;;;;;;5052055;28;20045;-70
2023/01/09 08:18:12;;;;;;;18.10;10.70;;;5.40;96.20;;;;;;5052081;28;20068;-71
2023/01/09 08:20:38;;;;;;;15.32;9.80;;;5.40;96.30;;;;;;5052405;28;20385;-72
2023/01/09 08:23:03;;;;;;;15.80;10.40;;;5.40;96.40;;;;;;5052040;28;20052;-73
2023/01/09 08:25:29;;;;;;;21.42;11.25;;;5.40;96.40;;;;;;5051981;28;20036;-75
2023/01/09 08:27:55;;;;;;;17.92;12.15;;;5.40;96.40;;;;;;5034509;28;20123;-75
2023/01/09 08:30:20;;;;;;;16.73;10.20;;;5.40;96.30;;;;;;5051779;28;20458;-74
2023/01/09 08:32:51;;;;;;;21.48;13.85;;;5.50;96.30;;;;;;5051757;28;20052;-72
2023/01/09 08:35:17;;;;;;;18.63;11.68;;;5.50;96.20;;;;;;5052085;28;20402;-73
2023/01/09 08:37:47;;;;;;;12.90;10.05;;;5.50;96.30;;;;;;5051727;28;20500;-73
2023/01/09 08:40:14;;;;;;;14.68;9.75;;;5.50;96.30;;;;;;5051813;28;20052;-73
2023/01/09 08:48:09;;;;;;;12.73;8.75;;;5.60;96.30;;;;;;5068506;28;20052;-72
2023/01/09 08:50:34;;;;;;;15.23;9.73;;;5.50;96.30;;;;;;5052161;28;20048;-73
2023/01/09 08:53:00;;;;;;;14.40;9.27;;;5.60;96.20;;;;;;5051625;28;20555;-74
2023/01/09 08:55:26;;;;;;;12.05;8.07;;;5.60;96.20;;;;;;5052080;28;20583;-73
2023/01/09 08:57:53;;;;;;;17.60;9.05;;;5.60;96.20;;;;;;5050746;28;20070;-76
2023/01/09 09:00:21;;;;;;;13.10;9.25;;;5.60;96.10;;;;;;5053937;28;20428;-72
2023/01/09 09:02:51;;;;;;;14.25;9.70;;;5.70;96.20;;;;;;5054537;28;20056;-74
2023/01/09 09:05:17;;;;;;;14.20;8.60;;;5.60;96.20;;;;;;5055083;28;20102;-72
2023/01/09 09:07:45;;;;;;;13.23;9.68;;;5.70;96.20;;;;;;5053904;28;20124;-74
2023/01/09 09:10:11;;;;;;;19.23;10.15;;;5.70;96.20;;;;;;5038912;28;20497;-72
2023/01/09 09:12:37;;;;;;;10.07;7.80;;;5.60;96.20;;;;;;5055079;28;20048;-71
2023/01/09 09:15:11;;;;;;;15.30;9.80;;;5.60;96.10;;;;;;5055564;28;20037;-73
2023/01/09 09:17:41;;;;;;;11.90;8.27;;;5.70;96.10;;;;;;5038409;28;20037;-73
2023/01/09 09:20:09;;;;;;;12.05;7.80;;;5.80;96.10;;;;;;5054977;28;20079;-73
2023/01/09 09:22:35;;;;;;;10.73;7.53;;;5.80;96.10;;;;;;5055404;28;20437;-72
2023/01/09 09:25:03;;;;;;;13.63;7.00;;;5.80;96.00;;;;;;5055149;28;20103;-76
2023/01/09 09:27:32;;;;;;;15.23;7.47;;;5.80;96.20;;;;;;5054948;28;20052;-74
2023/01/09 09:29:57;;;;;;;10.05;6.93;;;5.80;96.10;;;;;;5054926;28;20500;-72
2023/01/09 09:32:23;;;;;;;9.45;6.85;;;5.80;96.10;;;;;;5054983;28;20047;-72
2023/01/09 09:34:49;;;;;;;13.07;7.00;;;5.80;96.20;;;;;;5054820;28;20037;-74
2023/01/09 09:37:14;;;;;;;13.65;7.30;;;5.80;96.20;;;;;;5054582;28;20069;-73
2023/01/09 09:39:40;;;;;;;13.88;7.03;;;5.90;96.20;;;;;;5054961;28;20048;-74
2023/01/09 09:45:22;;;;;;;16.13;9.50;;;5.90;96.10;;;;;;5052684;28;20110;-74
2023/01/09 09:48:01;;;;;;;13.23;7.82;;;6.00;96.20;;;;;;5054445;28;20041;-74
2023/01/09 09:50:27;;;;;;;16.38;7.10;;;6.00;96.30;;;;;;5054949;28;20461;-74
2023/01/09 09:53:04;;;;;;;12.18;7.18;;;6.00;96.30;;;;;;5054298;28;20080;-73
2023/01/09 09:55:33;;;;;;;16.50;7.78;;;6.00;96.30;;;;;;5037939;28;20047;-75
2023/01/09 09:58:05;;;;;;;13.82;6.53;;;6.10;96.30;;;;;;5037831;28;20044;-74
2023/01/09 10:00:31;;;;;;;9.07;6.25;;;6.10;96.20;;;;;;5054727;28;20112;-74
2023/01/09 10:03:05;;;;;;;9.40;7.03;;;6.10;96.20;;;;;;5037816;28;20051;-71
2023/01/09 10:05:41;;;;;;;14.10;7.32;;;6.10;96.30;;;;;;5054362;28;20124;-75
2023/01/09 10:08:33;;;;;;;13.38;7.50;;;6.20;96.30;;;;;;5054153;28;20055;-74
2023/01/09 10:10:59;;;;;;;10.32;6.68;;;6.20;96.30;;;;;;5053660;28;20044;-75
2023/01/09 10:16:21;;;;;;;13.00;7.95;;;6.30;96.30;;;;;;5054371;28;20045;-76
2023/01/09 10:19:15;;;;;;;10.70;7.72;;;6.30;96.20;;;;;;5052283;28;20060;-75
2023/01/09 10:22:09;;;;;;;12.38;6.60;;;6.40;96.30;;;;;;5050065;28;20051;-76
2023/01/09 10:25:06;;;;;;;10.63;7.28;;;6.40;96.20;;;;;;5050632;28;20083;-74
2023/01/09 10:27:55;;;;;;;11.00;6.88;;;6.40;96.20;;;;;;5038336;28;20454;-73
2023/01/09 10:30:42;;;;;;;10.85;6.68;;;6.50;96.20;;;;;;5049023;28;20041;-73
2023/01/09 10:33:19;;;;;;;12.80;6.18;;;6.40;96.20;;;;;;5050858;28;20049;-72
2023/01/09 10:36:28;;;;;;;13.45;6.60;;;6.40;96.20;;;;;;5051803;28;20032;-73
2023/01/09 10:38:58;;;;;;;11.10;7.03;;;6.40;96.20;;;;;;5020618;28;20431;-75
2023/01/09 10:41:28;;;;;;;15.93;8.32;;;6.40;96.10;;;;;;5050548;28;20082;-73
2023/01/09 10:44:28;;;;;;;16.63;8.73;;;6.40;96.10;;;;;;5050990;28;20053;-72
2023/01/09 10:46:55;;;;;;;14.45;8.60;;;6.50;96.00;;;;;;5049620;28;20057;-71
2023/01/09 10:49:22;;;;;;;13.25;8.57;;;6.50;96.10;;;;;;5053759;28;20443;-73
2023/01/09 10:52:02;;;;;;;9.50;7.55;;;6.50;96.20;;;;;;5054628;28;20048;-74
2023/01/09 10:54:28;;;;;;;14.65;7.88;;;6.50;96.20;;;;;;5053197;28;20049;-72
2023/01/09 10:57:03;;;;;;;11.68;7.10;;;6.50;96.20;;;;;;5053407;28;20505;-72
2023/01/09 10:59:29;;;;;;;12.68;7.70;;;6.50;96.20;;;;;;5053406;28;20041;-71
2023/01/09 11:01:55;;;;;;;13.95;7.93;;;6.50;96.10;;;;;;5053298;28;20123;-73
2023/01/09 11:04:45;;;;;;;11.02;8.20;;;6.50;96.10;;;;;;5053297;28;20115;-74
2023/01/09 11:07:17;;;;;;;11.90;6.82;;;6.60;96.10;;;;;;5036569;28;20123;-73
2023/01/09 11:09:55;;;;;;;15.02;7.30;;;6.70;96.10;;;;;;5053207;28;20568;-74
2023/01/09 11:12:32;;;;;;;13.27;7.25;;;6.70;96.00;;;;;;5036318;28;20052;-74
2023/01/09 11:15:27;;;;;;;11.00;6.72;;;6.70;96.00;;;;;;5053031;28;20072;-73
2023/01/09 11:17:53;;;;;;;;;;;6.80;95.90;;;;;;5053664;28;20094;-73
2023/01/09 11:20:25;;;;;;;15.10;8.15;;;6.70;95.80;;;;;;5069834;28;19923;-73
2023/01/09 11:22:54;;;;;;;10.40;6.65;;;6.70;95.90;;;;;;5051949;28;20041;-72
2023/01/09 11:25:22;;;;;;;11.55;7.05;;;6.70;96.00;;;;;;5052863;28;20044;-72
2023/01/09 11:28:00;;;;;;;13.23;9.38;;;6.80;95.90;;;;;;5052726;28;20037;-72
2023/01/09 11:30:26;;;;;;;22.08;17.25;;;6.80;96.00;;;;;;5053185;28;20408;-73
2023/01/09 11:32:57;;;;;;;40.75;29.17;;;6.80;95.90;;;;;;5052794;28;20520;-72
2023/01/09 11:35:30;;;;;;;28.30;20.70;;;6.80;95.80;;;;;;5052716;28;20037;-73
2023/01/09 11:38:17;;;;;;;18.63;8.80;;;6.80;95.80;;;;;;5052772;28;20091;-75
2023/01/09 11:40:58;;;;;;;11.50;7.40;;;6.90;95.80;;;;;;5052692;28;20052;-72
2023/01/09 11:43:29;;;;;;;10.30;7.57;;;6.90;95.70;;;;;;5035911;28;20037;-74
2023/01/09 11:45:56;;;;;;;12.15;7.68;;;6.90;95.60;;;;;;5052788;28;20110;-75
2023/01/09 11:48:59;;;;;;;14.70;8.95;;;6.90;95.70;;;;;;5035920;28;20052;-75
2023/01/09 11:51:28;;;;;;;12.93;8.10;;;7.00;95.70;;;;;;5051677;28;20544;-75
2023/01/09 11:54:19;;;;;;;15.88;9.20;;;7.00;95.50;;;;;;5052100;28;20512;-72
2023/01/09 11:56:46;;;;;;;14.75;8.38;;;7.00;95.40;;;;;;5051978;28;20433;-72
2023/01/09 11:59:32;;;;;;;14.00;8.63;;;7.10;95.50;;;;;;5052413;28;20032;-75
2023/01/09 12:02:25;;;;;;;14.00;9.27;;;7.20;95.30;;;;;;5051837;28;20056;-75
2023/01/09 12:04:59;;;;;;;12.63;8.65;;;7.20;95.20;;;;;;5052110;28;20417;-71
2023/01/09 12:07:40;;;;;;;15.98;10.15;;;7.20;95.20;;;;;;5051767;28;20045;-72
2023/01/09 12:10:34;;;;;;;14.88;10.40;;;7.30;95.20;;;;;;5052393;28;20457;-73
2023/01/09 12:13:12;;;;;;;16.58;10.57;;;7.40;95.10;;;;;;5051820;28;20382;-74
2023/01/09 12:15:59;;;;;;;14.63;10.40;;;7.40;95.00;;;;;;5052211;28;20071;-74
2023/01/09 12:18:41;;;;;;;14.10;9.80;;;7.50;94.90;;;;;;5051828;28;20175;-72
2023/01/09 12:21:38;;;;;;;21.65;13.50;;;7.40;94.90;;;;;;5051771;28;20052;-73
2023/01/09 12:24:26;;;;;;;14.50;9.32;;;7.50;94.80;;;;;;5051871;28;20044;-72
2023/01/09 12:27:06;;;;;;;61.00;42.50;;;7.60;94.80;;;;;;5051829;28;20511;-72
2023/01/09 12:29:55;;;;;;;20.67;13.43;;;7.60;94.80;;;;;;5051867;28;20079;-73
2023/01/09 12:32:49;;;;;;;17.60;11.63;;;7.60;94.60;;;;;;5022277;28;20088;-73
2023/01/09 12:35:39;;;;;;;16.40;9.77;;;7.80;94.60;;;;;;5035170;28;20049;-72
2023/01/09 12:38:13;;;;;;;15.52;10.10;;;8.00;94.50;;;;;;5051632;28;20091;-72
2023/01/09 12:41:21;;;;;;;13.48;9.15;;;8.10;94.20;;;;;;5051657;28;20051;-72
2023/01/09 12:44:29;;;;;;;16.33;8.52;;;8.30;94.00;;;;;;5035070;28;20055;-71
2023/01/09 12:47:01;;;;;;;14.82;8.43;;;8.30;93.80;;;;;;4991312;28;20155;-70
2023/01/09 12:49:29;;;;;;;14.20;9.13;;;8.50;93.70;;;;;;5042073;28;20061;-70
2023/01/09 12:52:16;;;;;;;12.93;7.57;;;8.60;93.50;;;;;;5051555;28;20045;-75
2023/01/09 12:55:12;;;;;;;11.15;7.35;;;8.60;93.10;;;;;;5050788;28;20086;-75
2023/01/09 12:57:43;;;;;;;11.68;6.93;;;8.70;92.90;;;;;;5051418;28;20582;-73
2023/01/09 13:00:18;;;;;;;12.13;5.75;;;8.60;92.60;;;;;;5051802;28;20431;-71
2023/01/09 13:02:50;;;;;;;11.90;6.25;;;8.60;92.30;;;;;;5051742;28;20059;-73
2023/01/09 13:05:35;;;;;;;13.77;6.72;;;8.60;92.20;;;;;;5035063;28;20077;-73
2023/01/09 13:08:18;;;;;;;10.07;5.38;;;8.70;92.20;;;;;;5051406;28;20045;-71
2023/01/09 13:10:56;;;;;;;8.98;4.57;;;8.80;92.00;;;;;;5051440;28;20040;-71
2023/01/09 13:13:43;;;;;;;11.63;4.30;;;9.00;91.60;;;;;;5051630;28;20075;-73
2023/01/09 13:16:15;;;;;;;10.90;3.92;;;9.10;91.10;;;;;;5052598;28;20425;-73
2023/01/09 13:18:43;;;;;;;13.38;3.53;;;9.20;90.70;;;;;;5051520;28;20112;-73
2023/01/09 13:21:11;;;;;;;9.65;3.65;;;9.20;89.80;;;;;;5051254;28;20037;-75